GCRR/ACE METAR and TAF weather

Enter ICAO airport designator
Station Type Date Time Source
GCRR METAR 2024/04/17 19:30 UTC NOAA

GCRR 171930Z 08009KT 9999 FEW020 21/18 Q1014


Station Type Date Time Source
GCRR Decoded METAR 2024/04/17 19:30 UTC NOAA

Lanzarote / Aeropuerto, Spain (GCRR) 28-57N 013-36W 21M
Apr 17, 2024 - 03:30 PM EDT / 2024.04.17 1930 UTC
Wind: from the E (080 degrees) at 10 MPH (9 KT):0
Visibility: greater than 7 mile(s):0
Sky conditions: mostly clear
Temperature: 69 F (21 C)
Dew Point: 64 F (18 C)
Relative Humidity: 82%
Pressure (altimeter): 29.94 in. Hg (1014 hPa)
ob: GCRR 171930Z 08009KT 9999 FEW020 21/18 Q1014
cycle: 19

Station Type Date Time Source
GCRR TAF 2024/04/17 15:27 UTC NOAA